Terminal Aerodrome Forecast
Issued by NWS Buffalo, NY

Home | Current Version | Previous Version | Text Only | Print | Product List | Glossary On
Versions: 1 2 3 4 5 6 7 8 9 10 11 12 13 14 15 16 17 18 19 20 21 22 23 24
416
FTUS41 KBUF 280047 AAA
TAFROC
TAF AMD
KROC 280047Z 2801/2824 26014KT P6SM -SHRA OVC080
      TEMPO 2802/2804 3SM TSRA BKN035CB
     FM280500 24012KT P6SM OVC070
     FM280900 24011KT P6SM SCT040
     FM282000 26009KT P6SM BKN090=

USA.gov is the U.S. government's official web portal to all federal, state and local government web resources and services.